createdAt,value
2022-08-16T00:03:46.683Z,19.82
2022-08-16T00:08:50.102Z,19.79
2022-08-16T00:13:56.194Z,19.81
2022-08-16T00:19:01.501Z,19.72
2022-08-16T00:24:06.383Z,19.71
2022-08-16T00:29:16.948Z,19.75
2022-08-16T00:34:43.465Z,19.74
2022-08-16T00:39:47.664Z,19.61
2022-08-16T00:44:57.572Z,19.62
2022-08-16T00:50:02.305Z,19.57
2022-08-16T00:55:08.442Z,19.55
2022-08-16T01:00:13.447Z,19.37
2022-08-16T01:05:25.573Z,19.24
2022-08-16T01:10:33.559Z,19.33
2022-08-16T01:15:43.078Z,19.26
2022-08-16T01:20:54.654Z,19.25
2022-08-16T01:26:33.517Z,19.21
2022-08-16T01:31:31.019Z,19.24
2022-08-16T01:36:36.530Z,19.16
2022-08-16T01:41:44.211Z,19.14
2022-08-16T01:46:50.100Z,19.09
2022-08-16T01:51:58.891Z,18.98
2022-08-16T01:57:13.357Z,18.90
2022-08-16T02:02:26.540Z,18.98
2022-08-16T02:07:33.055Z,18.80
2022-08-16T02:12:43.621Z,18.82
2022-08-16T02:17:54.722Z,18.67
2022-08-16T02:23:00.131Z,18.65
2022-08-16T02:28:06.977Z,18.65
2022-08-16T02:33:15.428Z,18.62
2022-08-16T02:38:19.581Z,18.65
2022-08-16T02:43:27.215Z,18.53
2022-08-16T02:48:33.525Z,18.54
2022-08-16T02:53:40.508Z,18.38
2022-08-16T02:58:53.213Z,18.47
2022-08-16T03:04:40.064Z,18.16
2022-08-16T03:09:23.583Z,18.24
2022-08-16T03:14:32.531Z,18.18
2022-08-16T03:19:59.403Z,18.18
2022-08-16T03:25:04.601Z,18.15
2022-08-16T03:30:18.409Z,18.11
2022-08-16T03:35:32.727Z,18.10
2022-08-16T03:40:53.355Z,17.90
2022-08-16T03:46:01.566Z,17.91
2022-08-16T03:51:13.578Z,17.92
2022-08-16T03:56:23.597Z,18.04
2022-08-16T04:01:30.786Z,17.97
2022-08-16T04:06:36.556Z,18.01
2022-08-16T04:11:41.093Z,18.27
2022-08-16T04:16:45.876Z,18.14
2022-08-16T04:22:08.597Z,18.36
2022-08-16T04:27:20.692Z,18.30
2022-08-16T04:32:25.862Z,18.55
2022-08-16T04:37:30.624Z,18.62
2022-08-16T04:42:46.007Z,18.65
2022-08-16T04:47:55.979Z,18.85
2022-08-16T04:53:02.190Z,19.00
2022-08-16T04:58:44.538Z,19.15
2022-08-16T05:03:41.886Z,19.34
2022-08-16T05:08:59.642Z,19.65
2022-08-16T05:14:07.083Z,20.15
2022-08-16T05:19:16.364Z,20.40
2022-08-16T05:24:39.592Z,20.36
2022-08-16T05:29:59.339Z,20.46
2022-08-16T05:35:10.942Z,20.63
2022-08-16T05:40:19.263Z,20.49
2022-08-16T05:45:25.493Z,20.38
2022-08-16T05:50:34.437Z,20.39
2022-08-16T05:55:41.057Z,20.08
2022-08-16T06:00:45.192Z,20.15
2022-08-16T06:05:53.971Z,21.99
2022-08-16T06:11:05.663Z,25.39
2022-08-16T06:16:18.418Z,27.13
2022-08-16T06:21:27.138Z,29.05
2022-08-16T06:26:44.590Z,30.52
2022-08-16T06:32:04.297Z,31.56
2022-08-16T06:37:09.413Z,32.70
2022-08-16T06:42:14.872Z,34.26
2022-08-16T06:47:53.656Z,34.39
2022-08-16T06:58:34.083Z,36.65
2022-08-16T07:03:55.314Z,37.43
2022-08-16T07:09:09.704Z,38.23
2022-08-16T07:14:24.165Z,38.45
2022-08-16T07:20:04.035Z,39.05
2022-08-16T07:25:01.570Z,39.11
2022-08-16T07:30:26.648Z,40.26
2022-08-16T07:35:32.607Z,40.71
2022-08-16T07:41:00.410Z,40.25
2022-08-16T07:46:02.008Z,39.64
2022-08-16T07:51:09.770Z,40.43
2022-08-16T07:56:18.888Z,39.71
2022-08-16T08:01:24.830Z,39.24
2022-08-16T08:06:34.977Z,39.23
2022-08-16T08:12:00.028Z,39.77
2022-08-16T08:17:13.775Z,40.73
2022-08-16T08:22:19.375Z,40.64
2022-08-16T08:27:32.582Z,39.04
2022-08-16T08:32:57.919Z,37.99
2022-08-16T08:38:04.551Z,38.36
2022-08-16T08:43:18.275Z,37.13
2022-08-16T08:48:36.949Z,36.36
2022-08-16T08:53:43.853Z,34.01
2022-08-16T08:59:00.196Z,35.17
2022-08-16T09:04:17.552Z,33.62
2022-08-16T09:09:33.618Z,33.64
2022-08-16T09:14:49.555Z,33.51
2022-08-16T09:19:59.393Z,33.18
2022-08-16T09:25:09.911Z,33.04
2022-08-16T09:30:34.486Z,32.82
2022-08-16T09:35:45.795Z,32.68
2022-08-16T09:40:58.706Z,31.85
2022-08-16T09:46:46.027Z,31.71
2022-08-16T09:51:36.912Z,32.02
2022-08-16T09:56:51.406Z,33.07
2022-08-16T10:02:26.228Z,32.63
2022-08-16T10:07:38.319Z,32.03
2022-08-16T10:13:06.302Z,32.76
2022-08-16T10:18:56.534Z,33.12
2022-08-16T10:23:36.655Z,33.39
2022-08-16T10:28:41.946Z,33.58
2022-08-16T10:33:47.322Z,34.50
2022-08-16T10:38:52.128Z,34.63
2022-08-16T10:43:55.799Z,34.74
2022-08-16T10:49:05.201Z,34.36
2022-08-16T10:54:29.457Z,34.07
2022-08-16T10:59:45.968Z,34.84
2022-08-16T11:05:06.379Z,34.73
2022-08-16T11:15:35.271Z,35.42
2022-08-16T11:20:43.194Z,35.04
2022-08-16T11:26:10.403Z,34.68
2022-08-16T11:31:16.400Z,35.02
2022-08-16T11:36:27.636Z,34.53
2022-08-16T11:41:33.407Z,33.86
2022-08-16T11:46:45.081Z,34.75
2022-08-16T11:51:51.771Z,35.58
2022-08-16T11:56:57.438Z,35.81
2022-08-16T12:02:11.592Z,35.22
2022-08-16T12:07:26.038Z,35.73
2022-08-16T12:12:32.663Z,36.10
2022-08-16T12:17:36.814Z,34.92
2022-08-16T12:22:43.183Z,34.63
2022-08-16T12:27:49.706Z,33.91
2022-08-16T12:32:57.855Z,33.76
2022-08-16T12:38:08.652Z,34.12
2022-08-16T12:43:31.281Z,33.37
2022-08-16T12:48:52.693Z,33.81
2022-08-16T12:53:59.085Z,34.34
2022-08-16T12:59:06.629Z,34.48
2022-08-16T13:04:20.483Z,34.58
2022-08-16T13:09:28.890Z,34.43
2022-08-16T13:14:34.889Z,34.65
2022-08-16T13:20:09.669Z,34.65
2022-08-16T13:25:03.694Z,35.60
2022-08-16T13:30:36.519Z,36.69
2022-08-16T13:35:34.877Z,38.37
2022-08-16T13:40:40.610Z,38.04
2022-08-16T13:45:50.406Z,39.16
2022-08-16T13:50:56.325Z,38.93
2022-08-16T13:56:01.302Z,38.97
2022-08-16T14:01:09.809Z,37.81
2022-08-16T14:06:14.796Z,39.18
2022-08-16T14:11:19.614Z,39.52
2022-08-16T14:16:24.581Z,39.12
2022-08-16T14:21:42.998Z,39.90
2022-08-16T14:26:58.294Z,40.70
2022-08-16T14:32:06.486Z,40.41
2022-08-16T14:37:10.259Z,40.62
2022-08-16T14:42:18.211Z,38.49
2022-08-16T14:47:22.418Z,38.52
2022-08-16T14:52:52.056Z,37.96
2022-08-16T14:57:54.156Z,36.75
2022-08-16T15:02:59.926Z,37.39
2022-08-16T15:08:05.227Z,38.04
2022-08-16T15:13:10.725Z,36.76
2022-08-16T15:18:23.500Z,34.95
2022-08-16T15:23:34.067Z,34.78
2022-08-16T15:28:39.273Z,33.79
2022-08-16T15:33:51.093Z,35.24
2022-08-16T15:39:07.714Z,34.20
2022-08-16T15:44:26.577Z,32.21
2022-08-16T15:49:37.346Z,31.68
2022-08-16T15:54:52.415Z,31.30
2022-08-16T16:00:04.696Z,30.69
2022-08-16T16:05:19.625Z,30.03
2022-08-16T16:10:29.286Z,29.77
2022-08-16T16:15:37.648Z,29.53
2022-08-16T16:20:46.868Z,29.33
2022-08-16T16:25:50.312Z,29.32
2022-08-16T16:30:57.075Z,29.23
2022-08-16T16:36:03.400Z,29.07
2022-08-16T16:41:10.259Z,28.67
2022-08-16T16:46:39.327Z,28.55
2022-08-16T16:51:44.934Z,28.35
2022-08-16T16:56:53.212Z,28.34
2022-08-16T17:02:38.512Z,28.28
2022-08-16T17:07:24.329Z,28.08
2022-08-16T17:12:46.764Z,27.93
2022-08-16T17:18:00.270Z,27.75
2022-08-16T17:23:05.964Z,27.53
2022-08-16T17:28:58.503Z,27.30
2022-08-16T17:33:54.134Z,27.07
2022-08-16T17:39:00.150Z,26.71
2022-08-16T17:44:04.339Z,26.59
2022-08-16T17:49:09.018Z,26.49
2022-08-16T17:54:16.959Z,26.25
2022-08-16T17:59:41.114Z,26.00
2022-08-16T18:04:49.349Z,25.82
2022-08-16T18:09:53.452Z,25.37
2022-08-16T18:15:00.162Z,25.34
2022-08-16T18:20:05.781Z,25.27
2022-08-16T18:25:09.895Z,25.01
2022-08-16T18:30:17.674Z,25.08
2022-08-16T18:35:23.340Z,24.85
2022-08-16T18:40:27.297Z,24.66
2022-08-16T18:45:35.674Z,24.47
2022-08-16T18:50:59.691Z,24.29
2022-08-16T18:56:06.605Z,24.41
2022-08-16T19:01:10.110Z,24.34
2022-08-16T19:06:15.700Z,24.27
2022-08-16T19:11:25.759Z,24.04
2022-08-16T19:16:29.241Z,23.90
2022-08-16T19:21:33.993Z,23.62
2022-08-16T19:26:37.377Z,23.65
2022-08-16T19:31:40.729Z,23.50
2022-08-16T19:36:45.421Z,23.44
2022-08-16T19:41:51.981Z,23.14
2022-08-16T19:46:58.062Z,23.14
2022-08-16T19:52:12.405Z,23.23
2022-08-16T19:57:17.778Z,23.22
2022-08-16T20:02:36.184Z,23.08
2022-08-16T20:07:41.499Z,23.01
2022-08-16T20:13:02.286Z,23.12
2022-08-16T20:18:12.470Z,22.95
2022-08-16T20:23:29.860Z,22.94
2022-08-16T20:28:49.999Z,22.99
2022-08-16T20:33:56.538Z,22.77
2022-08-16T20:39:04.012Z,22.73
2022-08-16T20:44:08.062Z,22.89
2022-08-16T20:49:13.281Z,22.97
2022-08-16T20:54:18.229Z,22.95
2022-08-16T20:59:21.850Z,22.89
2022-08-16T21:04:27.765Z,22.89
2022-08-16T21:09:35.618Z,22.63
2022-08-16T21:14:39.107Z,22.51
2022-08-16T21:19:42.576Z,22.65
2022-08-16T21:24:48.402Z,22.42
2022-08-16T21:29:57.970Z,22.36
2022-08-16T21:35:08.182Z,22.48
2022-08-16T21:40:13.769Z,22.52
2022-08-16T21:45:17.317Z,22.35
2022-08-16T21:50:20.716Z,22.13
2022-08-16T21:55:26.498Z,22.10
2022-08-16T22:00:30.582Z,22.09
2022-08-16T22:05:35.492Z,22.20
2022-08-16T22:11:05.093Z,21.82
2022-08-16T22:16:06.758Z,21.92
2022-08-16T22:21:10.073Z,21.75
2022-08-16T22:26:16.312Z,21.78
2022-08-16T22:31:21.258Z,21.79
2022-08-16T22:36:30.113Z,21.69
2022-08-16T22:41:36.211Z,21.71
2022-08-16T22:46:39.934Z,21.65
2022-08-16T22:51:43.511Z,21.47
2022-08-16T22:56:48.435Z,21.56
2022-08-16T23:01:51.953Z,21.39
2022-08-16T23:06:55.419Z,21.40
2022-08-16T23:12:02.671Z,21.47
2022-08-16T23:17:06.175Z,21.47
2022-08-16T23:22:09.714Z,21.44
2022-08-16T23:27:14.358Z,21.37
2022-08-16T23:32:17.676Z,21.32
2022-08-16T23:37:20.973Z,21.40
2022-08-16T23:42:52.560Z,21.41
2022-08-16T23:47:49.426Z,21.21
2022-08-16T23:53:02.270Z,21.15
2022-08-16T23:58:07.342Z,21.15
